createdAt,value
2022-11-17T00:01:49.508Z,8.26
2022-11-17T00:03:59.223Z,8.22
2022-11-17T00:06:06.057Z,8.26
2022-11-17T00:08:10.822Z,8.25
2022-11-17T00:10:20.224Z,8.30
2022-11-17T00:12:37.399Z,8.41
2022-11-17T00:14:44.194Z,8.45
2022-11-17T00:16:52.456Z,8.55
2022-11-17T00:19:21.395Z,8.53
2022-11-17T00:21:26.965Z,8.51
2022-11-17T00:23:47.408Z,8.55
2022-11-17T00:25:52.647Z,8.64
2022-11-17T00:27:57.446Z,8.61
2022-11-17T00:30:02.300Z,8.66
2022-11-17T00:32:20.171Z,8.61
2022-11-17T00:34:24.973Z,8.64
2022-11-17T00:36:29.911Z,8.64
2022-11-17T00:38:34.662Z,8.67
2022-11-17T00:40:39.659Z,8.64
2022-11-17T00:42:44.414Z,8.67
2022-11-17T00:44:49.204Z,8.67
2022-11-17T00:46:54.107Z,8.67
2022-11-17T00:48:59.207Z,8.66
2022-11-17T00:51:09.334Z,8.63
2022-11-17T00:53:14.127Z,8.61
2022-11-17T00:55:19.024Z,8.69
2022-11-17T00:57:23.830Z,8.73
2022-11-17T00:59:28.698Z,8.71
2022-11-17T01:01:34.168Z,8.74
2022-11-17T01:03:39.378Z,8.76
2022-11-17T01:05:47.796Z,8.77
2022-11-17T01:07:55.816Z,8.80
2022-11-17T01:10:00.903Z,8.69
2022-11-17T01:12:05.993Z,8.67
2022-11-17T01:14:13.098Z,8.74
2022-11-17T01:16:20.404Z,8.83
2022-11-17T01:18:25.187Z,8.79
2022-11-17T01:20:29.942Z,8.78
2022-11-17T01:22:34.840Z,8.71
2022-11-17T01:24:42.787Z,8.72
2022-11-17T01:26:50.664Z,8.77
2022-11-17T01:28:56.134Z,8.72
2022-11-17T01:31:06.174Z,8.71
2022-11-17T01:33:10.971Z,8.71
2022-11-17T01:35:15.722Z,8.66
2022-11-17T01:37:23.105Z,8.70
2022-11-17T01:39:29.305Z,8.71
2022-11-17T01:41:36.649Z,8.73
2022-11-17T01:43:44.400Z,8.74
2022-11-17T01:45:49.259Z,8.74
2022-11-17T01:47:56.173Z,8.75
2022-11-17T01:50:06.591Z,8.71
2022-11-17T01:52:13.838Z,8.71
2022-11-17T01:54:23.225Z,8.84
2022-11-17T01:56:34.281Z,8.91
2022-11-17T01:58:46.774Z,8.91
2022-11-17T02:00:51.612Z,8.85
2022-11-17T02:02:56.968Z,8.83
2022-11-17T02:05:10.054Z,8.73
2022-11-17T02:07:20.691Z,8.75
2022-11-17T02:09:27.472Z,8.76
2022-11-17T02:11:36.293Z,8.77
2022-11-17T02:13:44.789Z,8.82
2022-11-17T02:15:49.903Z,8.85
2022-11-17T02:17:55.339Z,8.77
2022-11-17T02:20:08.203Z,8.76
2022-11-17T02:22:33.649Z,8.82
2022-11-17T02:25:07.500Z,8.85
2022-11-17T02:27:43.964Z,8.81
2022-11-17T02:29:56.186Z,8.79
2022-11-17T02:32:07.683Z,8.89
2022-11-17T02:34:27.647Z,8.91
2022-11-17T02:36:39.741Z,8.80
2022-11-17T02:38:54.438Z,8.83
2022-11-17T02:41:07.808Z,8.74
2022-11-17T02:43:33.472Z,8.83
2022-11-17T02:45:43.700Z,8.77
2022-11-17T02:47:50.956Z,8.82
2022-11-17T02:50:02.112Z,8.81
2022-11-17T02:52:09.272Z,8.87
2022-11-17T02:54:14.960Z,8.89
2022-11-17T02:56:19.797Z,8.91
2022-11-17T02:58:27.190Z,8.94
2022-11-17T03:00:35.810Z,8.98
2022-11-17T03:03:02.177Z,8.99
2022-11-17T03:05:15.913Z,8.98
2022-11-17T03:07:33.631Z,8.93
2022-11-17T03:09:49.544Z,8.96
2022-11-17T03:11:59.173Z,8.89
2022-11-17T03:14:12.529Z,8.87
2022-11-17T03:16:28.004Z,8.86
2022-11-17T03:18:38.228Z,8.90
2022-11-17T03:20:49.385Z,8.94
2022-11-17T03:23:01.711Z,8.96
2022-11-17T03:25:10.047Z,9.00
2022-11-17T03:27:21.757Z,9.01
2022-11-17T03:29:32.984Z,9.02
2022-11-17T03:31:39.230Z,9.05
2022-11-17T03:33:48.044Z,9.10
2022-11-17T03:35:59.824Z,9.09
2022-11-17T03:38:10.858Z,9.11
2022-11-17T03:40:17.843Z,9.12
2022-11-17T03:42:32.697Z,9.13
2022-11-17T03:44:48.127Z,9.01
2022-11-17T03:46:57.391Z,9.01
2022-11-17T03:49:09.613Z,9.04
2022-11-17T03:51:18.502Z,9.07
2022-11-17T03:53:23.502Z,9.05
2022-11-17T03:55:36.416Z,9.07
2022-11-17T03:57:47.146Z,9.09
2022-11-17T04:00:00.778Z,9.06
2022-11-17T04:02:05.828Z,9.12
2022-11-17T04:04:15.505Z,9.09
2022-11-17T04:06:20.314Z,9.04
2022-11-17T04:08:29.558Z,9.01
2022-11-17T04:10:54.386Z,9.05
2022-11-17T04:13:11.580Z,9.03
2022-11-17T04:15:31.716Z,9.02
2022-11-17T04:17:36.646Z,9.02
2022-11-17T04:19:41.529Z,9.06
2022-11-17T04:21:46.312Z,9.05
2022-11-17T04:23:51.227Z,9.02
2022-11-17T04:26:10.255Z,9.09
2022-11-17T04:28:27.458Z,9.15
2022-11-17T04:30:34.891Z,9.09
2022-11-17T04:32:39.670Z,9.11
2022-11-17T04:34:44.423Z,9.02
2022-11-17T04:36:49.487Z,8.98
2022-11-17T04:38:59.065Z,9.05
2022-11-17T04:41:17.960Z,9.02
2022-11-17T04:43:22.844Z,9.10
2022-11-17T04:45:27.621Z,9.10
2022-11-17T04:47:34.962Z,9.12
2022-11-17T04:49:39.800Z,9.13
2022-11-17T04:51:45.051Z,9.15
2022-11-17T04:53:49.599Z,9.07
2022-11-17T04:55:54.348Z,9.12
2022-11-17T04:57:59.190Z,9.15
2022-11-17T05:00:04.103Z,9.19
2022-11-17T05:02:08.906Z,9.18
2022-11-17T05:04:38.040Z,9.22
2022-11-17T05:06:44.745Z,9.22
2022-11-17T05:08:49.898Z,9.23
2022-11-17T05:11:12.606Z,9.25
2022-11-17T05:13:22.031Z,9.26
2022-11-17T05:15:39.072Z,9.20
2022-11-17T05:17:43.836Z,9.10
2022-11-17T05:19:51.558Z,9.13
2022-11-17T05:21:56.813Z,9.13
2022-11-17T05:23:58.946Z,9.04
2022-11-17T05:26:03.962Z,9.03
2022-11-17T05:28:08.746Z,9.03
2022-11-17T05:30:14.893Z,9.04
2022-11-17T05:32:19.888Z,9.11
2022-11-17T05:34:24.656Z,9.14
2022-11-17T05:36:32.547Z,9.23
2022-11-17T05:38:37.454Z,9.21
2022-11-17T05:40:43.368Z,9.16
2022-11-17T05:42:51.745Z,9.20
2022-11-17T05:44:59.209Z,9.17
2022-11-17T05:47:03.990Z,9.14
2022-11-17T05:49:08.825Z,9.14
2022-11-17T05:51:14.194Z,9.12
2022-11-17T05:53:21.556Z,9.09
2022-11-17T05:55:26.338Z,9.05
2022-11-17T05:57:34.597Z,9.02
2022-11-17T05:59:44.626Z,8.99
2022-11-17T06:01:54.137Z,8.99
2022-11-17T06:04:03.027Z,8.98
2022-11-17T06:06:08.390Z,8.95
2022-11-17T06:08:16.199Z,8.87
2022-11-17T06:10:23.991Z,8.88
2022-11-17T06:12:28.731Z,8.90
2022-11-17T06:14:33.538Z,8.95
2022-11-17T06:16:44.571Z,8.99
2022-11-17T06:18:53.221Z,9.03
2022-11-17T06:20:58.299Z,9.11
2022-11-17T06:23:05.928Z,9.15
2022-11-17T06:25:12.784Z,9.12
2022-11-17T06:27:20.477Z,9.16
2022-11-17T06:29:25.413Z,9.17
2022-11-17T06:31:32.436Z,9.13
2022-11-17T06:33:38.872Z,9.16
2022-11-17T06:35:45.447Z,9.22
2022-11-17T06:37:50.285Z,9.23
2022-11-17T06:39:55.153Z,9.24
2022-11-17T06:41:59.922Z,9.27
2022-11-17T06:44:07.733Z,9.30
2022-11-17T06:46:12.571Z,9.32
2022-11-17T06:48:25.232Z,9.28
2022-11-17T06:50:29.980Z,9.26
2022-11-17T06:52:34.752Z,9.23
2022-11-17T06:54:39.509Z,9.22
2022-11-17T06:56:44.656Z,9.14
2022-11-17T06:58:49.409Z,9.02
2022-11-17T07:00:56.955Z,8.93
2022-11-17T07:03:03.683Z,8.88
2022-11-17T07:05:08.929Z,8.83
2022-11-17T07:07:14.935Z,8.82
2022-11-17T07:09:20.060Z,8.78
2022-11-17T07:11:24.866Z,8.76
2022-11-17T07:13:29.689Z,8.77
2022-11-17T07:15:34.843Z,8.72
2022-11-17T07:17:45.129Z,8.75
2022-11-17T07:19:49.888Z,8.78
2022-11-17T07:21:54.703Z,8.78
2022-11-17T07:23:59.478Z,8.81
2022-11-17T07:26:04.778Z,8.83
2022-11-17T07:28:09.377Z,8.78
2022-11-17T07:30:15.648Z,8.76
2022-11-17T07:32:20.412Z,8.79
2022-11-17T07:34:27.926Z,8.78
2022-11-17T07:36:32.741Z,8.76
2022-11-17T07:38:38.991Z,8.69
2022-11-17T07:40:44.163Z,8.72
2022-11-17T07:42:51.606Z,8.76
2022-11-17T07:44:56.766Z,8.80
2022-11-17T07:47:01.677Z,8.80
2022-11-17T07:49:06.532Z,8.81
2022-11-17T07:51:14.271Z,8.82
2022-11-17T07:53:19.180Z,8.86
2022-11-17T07:55:24.905Z,8.90
2022-11-17T07:57:31.261Z,8.92
2022-11-17T07:59:36.233Z,8.95
2022-11-17T08:01:42.202Z,8.98
2022-11-17T08:03:47.466Z,8.99
2022-11-17T08:05:53.508Z,9.03
2022-11-17T08:08:02.131Z,9.11
2022-11-17T08:10:08.109Z,9.11
2022-11-17T08:12:12.903Z,9.17
2022-11-17T08:14:17.987Z,9.19
2022-11-17T08:16:22.544Z,9.13
2022-11-17T08:18:27.679Z,9.14
2022-11-17T08:20:32.996Z,9.22
2022-11-17T08:22:37.497Z,9.20
2022-11-17T08:24:45.066Z,9.25
2022-11-17T08:26:49.860Z,9.30
2022-11-17T08:28:58.365Z,9.32
2022-11-17T08:31:04.469Z,9.38
2022-11-17T08:33:09.332Z,9.45
2022-11-17T08:35:14.100Z,9.44
2022-11-17T08:37:18.870Z,9.47
2022-11-17T08:39:23.649Z,9.53
2022-11-17T08:41:31.882Z,9.62
2022-11-17T08:43:37.127Z,9.79
2022-11-17T08:45:41.669Z,9.84
2022-11-17T08:47:46.381Z,9.92
2022-11-17T08:49:51.181Z,10.01
2022-11-17T08:51:55.972Z,10.05
2022-11-17T08:54:01.689Z,10.03
2022-11-17T08:56:11.897Z,9.97
2022-11-17T08:58:22.302Z,9.99
2022-11-17T09:00:27.108Z,10.02
2022-11-17T09:02:31.964Z,10.03
2022-11-17T09:04:36.764Z,10.11
2022-11-17T09:06:41.620Z,10.07
2022-11-17T09:08:47.381Z,10.08
2022-11-17T09:10:52.507Z,10.14
2022-11-17T09:12:58.362Z,10.11
2022-11-17T09:15:06.287Z,10.19
2022-11-17T09:17:11.591Z,10.18
2022-11-17T09:19:17.298Z,10.18
2022-11-17T09:21:22.082Z,10.27
2022-11-17T09:23:26.912Z,10.30
2022-11-17T09:25:31.953Z,10.26
2022-11-17T09:27:36.998Z,10.20
2022-11-17T09:29:41.811Z,10.22
2022-11-17T09:31:49.327Z,10.26
2022-11-17T09:33:54.232Z,10.25
2022-11-17T09:36:00.126Z,10.23
2022-11-17T09:38:04.888Z,10.28
2022-11-17T09:40:14.460Z,10.29
2022-11-17T09:42:22.672Z,10.34
2022-11-17T09:44:40.368Z,10.39
2022-11-17T09:47:10.043Z,10.43
2022-11-17T09:49:22.898Z,10.45
2022-11-17T09:51:32.607Z,10.46
2022-11-17T09:53:48.471Z,10.47
2022-11-17T09:55:56.442Z,10.50
2022-11-17T09:58:09.995Z,10.52
2022-11-17T10:00:19.882Z,10.47
2022-11-17T10:02:27.905Z,10.49
2022-11-17T10:04:32.906Z,10.45
2022-11-17T10:06:40.004Z,10.52
2022-11-17T10:08:49.946Z,10.59
2022-11-17T10:10:54.912Z,10.55
2022-11-17T10:13:01.467Z,10.56
2022-11-17T10:15:24.525Z,10.61
2022-11-17T10:17:34.058Z,10.64
2022-11-17T10:19:41.042Z,10.64
2022-11-17T10:21:47.049Z,10.72
2022-11-17T10:23:58.937Z,10.80
2022-11-17T10:26:03.767Z,10.86
2022-11-17T10:28:24.938Z,10.94
2022-11-17T10:30:29.701Z,10.95
2022-11-17T10:32:43.965Z,10.95
2022-11-17T10:34:51.835Z,10.93
2022-11-17T10:36:56.603Z,10.93
2022-11-17T10:39:03.219Z,10.92
2022-11-17T10:41:08.385Z,10.90
2022-11-17T10:43:23.031Z,10.89
2022-11-17T10:45:27.930Z,10.89
2022-11-17T10:47:36.530Z,10.89
2022-11-17T10:49:44.025Z,10.97
2022-11-17T10:52:07.351Z,11.02
2022-11-17T10:54:24.526Z,11.15
2022-11-17T10:56:29.631Z,11.25
2022-11-17T10:58:36.109Z,11.31
2022-11-17T11:00:44.465Z,11.42
2022-11-17T11:02:49.297Z,11.53
2022-11-17T11:05:09.391Z,11.64
2022-11-17T11:07:16.363Z,11.63
2022-11-17T11:09:25.673Z,11.59
2022-11-17T11:11:49.394Z,11.55
2022-11-17T11:13:59.088Z,11.53
2022-11-17T11:16:03.995Z,11.60
2022-11-17T11:18:15.443Z,11.64
2022-11-17T11:20:26.913Z,11.71
2022-11-17T11:22:39.184Z,11.73
2022-11-17T11:24:51.716Z,11.78
2022-11-17T11:27:08.012Z,11.78
2022-11-17T11:29:23.280Z,11.81
2022-11-17T11:31:34.086Z,11.83
2022-11-17T11:33:42.146Z,11.86
2022-11-17T11:36:04.676Z,11.94
2022-11-17T11:38:26.937Z,11.94
2022-11-17T11:40:39.939Z,11.95
2022-11-17T11:42:53.082Z,11.97
2022-11-17T11:45:10.011Z,11.99
2022-11-17T11:47:27.446Z,11.93
2022-11-17T11:49:40.461Z,11.81
2022-11-17T11:51:51.611Z,11.73
2022-11-17T11:54:04.808Z,11.60
2022-11-17T11:56:21.507Z,11.52
2022-11-17T11:58:27.463Z,11.54
2022-11-17T12:00:32.376Z,11.54
2022-11-17T12:02:45.044Z,11.53
2022-11-17T12:04:55.485Z,11.55
2022-11-17T12:07:15.402Z,11.62
2022-11-17T12:10:01.872Z,11.65
2022-11-17T12:12:12.226Z,11.64
2022-11-17T12:14:20.974Z,11.73
2022-11-17T12:16:33.991Z,11.90
2022-11-17T12:18:38.834Z,11.97
2022-11-17T12:21:04.037Z,12.16
2022-11-17T12:23:24.756Z,12.29
2022-11-17T12:25:32.875Z,12.42
2022-11-17T12:27:48.735Z,12.56
2022-11-17T12:29:53.537Z,12.65
2022-11-17T12:31:59.390Z,12.69
2022-11-17T12:34:30.676Z,12.76
2022-11-17T12:36:36.417Z,12.83
2022-11-17T12:38:44.556Z,12.82
2022-11-17T12:40:50.900Z,12.82
2022-11-17T12:43:23.187Z,12.88
2022-11-17T12:45:28.195Z,12.91
2022-11-17T12:47:35.179Z,12.98
2022-11-17T12:49:57.201Z,13.02
2022-11-17T12:52:08.410Z,13.07
2022-11-17T12:54:27.530Z,13.14
2022-11-17T12:56:47.238Z,13.28
2022-11-17T12:59:16.666Z,13.30
2022-11-17T13:01:29.634Z,13.32
2022-11-17T13:03:44.357Z,13.28
2022-11-17T13:06:33.815Z,12.54
2022-11-17T13:08:34.419Z,11.31
2022-11-17T13:10:41.951Z,11.26
2022-11-17T13:12:46.783Z,11.13
2022-11-17T13:14:56.596Z,11.06
2022-11-17T13:17:02.959Z,10.95
2022-11-17T13:19:22.603Z,10.75
2022-11-17T13:21:32.627Z,10.57
2022-11-17T13:23:37.513Z,10.42
2022-11-17T13:25:44.949Z,10.27
2022-11-17T13:27:56.017Z,10.11
2022-11-17T13:30:17.222Z,10.12
2022-11-17T13:32:24.042Z,10.08
2022-11-17T13:34:29.063Z,9.88
2022-11-17T13:36:33.891Z,9.82
2022-11-17T13:38:38.719Z,9.95
2022-11-17T13:40:46.666Z,10.09
2022-11-17T13:42:52.539Z,10.30
2022-11-17T13:44:59.095Z,10.49
2022-11-17T13:47:22.063Z,10.47
2022-11-17T13:49:36.425Z,10.49
2022-11-17T13:51:49.235Z,10.56
2022-11-17T13:53:56.998Z,10.67
2022-11-17T13:56:04.530Z,10.79
2022-11-17T13:58:26.259Z,10.87
2022-11-17T14:00:33.283Z,10.99
2022-11-17T14:02:38.063Z,11.04
2022-11-17T14:04:42.864Z,11.08
2022-11-17T14:06:59.070Z,11.17
2022-11-17T14:09:08.506Z,11.23
2022-11-17T14:11:30.421Z,11.26
2022-11-17T14:13:41.488Z,11.18
2022-11-17T14:15:54.620Z,11.14
2022-11-17T14:18:01.764Z,11.12
2022-11-17T14:20:20.942Z,11.09
2022-11-17T14:22:31.806Z,10.98
2022-11-17T14:24:37.526Z,10.94
2022-11-17T14:26:49.425Z,10.94
2022-11-17T14:28:56.790Z,10.98
2022-11-17T14:31:01.577Z,11.03
2022-11-17T14:33:12.090Z,11.02
2022-11-17T14:37:23.222Z,11.05
2022-11-17T14:39:28.111Z,11.08
2022-11-17T14:41:33.136Z,11.12
2022-11-17T14:43:40.504Z,11.14
2022-11-17T14:45:45.340Z,11.17
2022-11-17T14:47:51.342Z,11.17
2022-11-17T14:49:56.240Z,11.14
2022-11-17T14:52:02.531Z,11.09
2022-11-17T14:54:07.535Z,10.96
2022-11-17T14:56:13.290Z,10.88
2022-11-17T14:58:18.060Z,10.84
2022-11-17T15:00:25.704Z,10.86
2022-11-17T15:02:30.606Z,10.85
2022-11-17T15:04:49.997Z,10.87
2022-11-17T15:06:55.693Z,10.84
2022-11-17T15:09:03.447Z,10.83
2022-11-17T15:11:09.039Z,10.82
2022-11-17T15:13:14.216Z,10.86
2022-11-17T15:15:19.236Z,10.87
2022-11-17T15:17:27.252Z,10.90
2022-11-17T15:19:32.441Z,10.94
2022-11-17T15:21:37.385Z,10.94
2022-11-17T15:23:43.714Z,10.88
2022-11-17T15:25:48.728Z,10.78
2022-11-17T15:27:54.266Z,10.76
2022-11-17T15:30:03.994Z,10.75
2022-11-17T15:32:09.248Z,10.75
2022-11-17T15:34:20.101Z,10.73
2022-11-17T15:36:26.008Z,10.75
2022-11-17T15:38:31.519Z,10.80
2022-11-17T15:40:36.661Z,10.84
2022-11-17T15:42:41.497Z,10.86
2022-11-17T15:44:46.329Z,10.90
2022-11-17T15:46:51.131Z,10.93
2022-11-17T15:48:56.273Z,10.96
2022-11-17T15:51:04.710Z,10.95
2022-11-17T15:53:09.456Z,10.91
2022-11-17T15:55:14.269Z,10.90
2022-11-17T15:57:19.182Z,10.92
2022-11-17T15:59:24.035Z,10.93
2022-11-17T16:01:30.688Z,10.96
2022-11-17T16:03:35.608Z,10.96
2022-11-17T16:05:40.494Z,10.98
2022-11-17T16:07:47.963Z,10.98
2022-11-17T16:09:54.756Z,11.01
2022-11-17T16:11:59.695Z,11.01
2022-11-17T16:14:05.328Z,11.05
2022-11-17T16:16:13.311Z,10.82
2022-11-17T16:18:18.184Z,10.82
2022-11-17T16:20:23.052Z,10.67
2022-11-17T16:22:27.973Z,10.49
2022-11-17T16:24:46.829Z,10.32
2022-11-17T16:26:51.561Z,10.25
2022-11-17T16:28:59.315Z,10.32
2022-11-17T16:31:14.962Z,10.34
2022-11-17T16:33:27.714Z,10.48
2022-11-17T16:35:35.696Z,10.55
2022-11-17T16:37:40.583Z,10.61
2022-11-17T16:39:49.244Z,10.65
2022-11-17T16:41:55.779Z,10.75
2022-11-17T16:44:00.763Z,10.78
2022-11-17T16:46:18.405Z,10.82
2022-11-17T16:48:23.392Z,10.87
2022-11-17T16:50:28.358Z,10.92
2022-11-17T16:52:33.346Z,10.97
2022-11-17T16:54:38.212Z,11.01
2022-11-17T16:56:45.626Z,11.03
2022-11-17T16:58:51.921Z,11.02
2022-11-17T17:00:57.774Z,11.02
2022-11-17T17:03:02.851Z,10.99
2022-11-17T17:05:07.909Z,10.88
2022-11-17T17:07:16.129Z,10.83
2022-11-17T17:09:41.232Z,10.80
2022-11-17T17:11:49.293Z,10.78
2022-11-17T17:13:57.140Z,10.71
2022-11-17T17:16:06.043Z,10.71
2022-11-17T17:18:13.703Z,10.74
2022-11-17T17:20:18.997Z,10.78
2022-11-17T17:22:23.575Z,10.80
2022-11-17T17:24:28.598Z,10.76
2022-11-17T17:26:35.158Z,10.81
2022-11-17T17:28:44.761Z,10.85
2022-11-17T17:30:56.658Z,10.88
2022-11-17T17:33:04.733Z,10.93
2022-11-17T17:35:10.602Z,10.97
2022-11-17T17:37:20.223Z,11.00
2022-11-17T17:39:25.220Z,10.98
2022-11-17T17:41:32.127Z,10.94
2022-11-17T17:43:43.204Z,10.94
2022-11-17T17:45:48.181Z,10.94
2022-11-17T17:47:56.479Z,10.92
2022-11-17T17:50:02.205Z,10.93
2022-11-17T17:52:13.512Z,10.88
2022-11-17T17:54:20.913Z,10.92
2022-11-17T17:56:26.000Z,10.92
2022-11-17T17:58:30.696Z,10.92
2022-11-17T18:00:38.083Z,10.96
2022-11-17T18:02:42.993Z,10.98
2022-11-17T18:04:47.828Z,11.02
2022-11-17T18:06:52.708Z,10.99
2022-11-17T18:08:57.536Z,10.90
2022-11-17T18:11:03.007Z,10.88
2022-11-17T18:13:10.624Z,10.89
2022-11-17T18:15:17.846Z,10.91
2022-11-17T18:17:25.217Z,10.92
2022-11-17T18:19:33.209Z,10.92
2022-11-17T18:21:39.027Z,10.86
2022-11-17T18:23:44.779Z,10.85
2022-11-17T18:25:49.584Z,10.82
2022-11-17T18:27:54.435Z,10.80
2022-11-17T18:29:59.175Z,10.78
2022-11-17T18:32:03.945Z,10.77
2022-11-17T18:34:18.880Z,10.76
2022-11-17T18:36:23.996Z,10.75
2022-11-17T18:38:28.721Z,10.68
2022-11-17T18:40:34.715Z,10.63
2022-11-17T18:42:39.482Z,10.61
2022-11-17T18:44:44.451Z,10.58
2022-11-17T18:46:49.576Z,10.56
2022-11-17T18:48:55.948Z,10.50
2022-11-17T18:51:19.106Z,10.52
2022-11-17T18:53:24.717Z,10.59
2022-11-17T18:55:29.781Z,10.67
2022-11-17T18:57:34.638Z,10.72
2022-11-17T18:59:39.572Z,10.78
2022-11-17T19:01:46.913Z,10.77
2022-11-17T19:03:53.638Z,10.56
2022-11-17T19:05:58.484Z,10.61
2022-11-17T19:08:05.919Z,10.68
2022-11-17T19:10:11.814Z,10.77
2022-11-17T19:12:19.656Z,10.70
2022-11-17T19:14:24.450Z,10.57
2022-11-17T19:16:29.513Z,10.47
2022-11-17T19:18:34.425Z,10.58
2022-11-17T19:20:39.303Z,10.64
2022-11-17T19:22:44.773Z,10.73
2022-11-17T19:24:52.181Z,10.75
2022-11-17T19:26:57.077Z,10.65
2022-11-17T19:29:03.425Z,10.57
2022-11-17T19:31:10.943Z,10.53
2022-11-17T19:33:15.687Z,10.57
2022-11-17T19:35:22.835Z,10.65
2022-11-17T19:37:27.918Z,10.59
2022-11-17T19:39:32.693Z,10.53
2022-11-17T19:41:42.361Z,10.54
2022-11-17T19:43:47.390Z,10.64
2022-11-17T19:45:59.478Z,10.70
2022-11-17T19:48:04.315Z,10.70
2022-11-17T19:50:10.093Z,10.66
2022-11-17T19:52:15.027Z,10.68
2022-11-17T19:54:19.845Z,10.74
2022-11-17T19:56:25.900Z,10.77
2022-11-17T19:58:33.267Z,10.82
2022-11-17T20:00:38.117Z,10.86
2022-11-17T20:02:43.092Z,10.82
2022-11-17T20:04:47.918Z,10.76
2022-11-17T20:06:52.842Z,10.72
2022-11-17T20:08:57.986Z,10.71
2022-11-17T20:11:11.077Z,10.75
2022-11-17T20:13:18.860Z,10.72
2022-11-17T20:15:34.572Z,10.78
2022-11-17T20:17:40.345Z,10.79
2022-11-17T20:19:45.384Z,10.61
2022-11-17T20:21:50.368Z,10.28
2022-11-17T20:23:55.381Z,9.99
2022-11-17T20:26:00.243Z,9.87
2022-11-17T20:28:05.047Z,9.94
2022-11-17T20:30:15.193Z,10.05
2022-11-17T20:32:23.171Z,10.11
2022-11-17T20:34:28.002Z,10.12
2022-11-17T20:36:34.072Z,10.21
2022-11-17T20:38:39.015Z,10.28
2022-11-17T20:40:43.832Z,10.33
2022-11-17T20:42:48.630Z,10.39
2022-11-17T20:44:53.485Z,10.45
2022-11-17T20:46:58.513Z,10.50
2022-11-17T20:49:07.543Z,10.48
2022-11-17T20:51:14.746Z,10.46
2022-11-17T20:53:19.516Z,10.40
2022-11-17T20:55:24.323Z,10.39
2022-11-17T20:57:29.167Z,10.35
2022-11-17T20:59:33.996Z,10.33
2022-11-17T21:01:38.906Z,10.30
2022-11-17T21:03:44.069Z,10.29
2022-11-17T21:06:00.412Z,10.28
2022-11-17T21:08:05.248Z,10.26
2022-11-17T21:10:11.116Z,10.29
2022-11-17T21:12:15.960Z,10.32
2022-11-17T21:14:20.743Z,10.33
2022-11-17T21:16:25.707Z,10.34
2022-11-17T21:18:30.996Z,10.34
2022-11-17T21:20:36.268Z,10.34
2022-11-17T21:22:43.523Z,10.31
2022-11-17T21:24:48.368Z,10.26
2022-11-17T21:26:54.579Z,10.25
2022-11-17T21:29:05.970Z,10.26
2022-11-17T21:31:14.454Z,10.25
2022-11-17T21:33:19.739Z,10.17
2022-11-17T21:35:24.355Z,10.11
2022-11-17T21:37:29.738Z,10.07
2022-11-17T21:39:37.704Z,10.07
2022-11-17T21:41:45.528Z,10.04
2022-11-17T21:43:51.780Z,9.98
2022-11-17T21:45:56.609Z,9.99
2022-11-17T21:48:01.451Z,10.05
2022-11-17T21:50:06.780Z,10.03
2022-11-17T21:52:11.458Z,10.08
2022-11-17T21:54:17.863Z,10.12
2022-11-17T21:56:26.828Z,10.10
2022-11-17T21:58:31.806Z,10.10
2022-11-17T22:00:37.150Z,10.12
2022-11-17T22:02:44.340Z,10.20
2022-11-17T22:04:49.141Z,10.23
2022-11-17T22:06:54.103Z,10.25
2022-11-17T22:08:59.632Z,10.21
2022-11-17T22:11:06.610Z,10.24
2022-11-17T22:13:14.139Z,10.27
2022-11-17T22:15:19.540Z,10.27
2022-11-17T22:17:24.753Z,10.29
2022-11-17T22:19:30.336Z,10.25
2022-11-17T22:21:36.465Z,10.22
2022-11-17T22:23:41.554Z,10.24
2022-11-17T22:25:46.385Z,10.21
2022-11-17T22:27:51.253Z,10.20
2022-11-17T22:29:58.680Z,10.23
2022-11-17T22:32:03.635Z,10.28
2022-11-17T22:34:08.485Z,10.31
2022-11-17T22:36:14.178Z,10.31
2022-11-17T22:38:19.787Z,10.29
2022-11-17T22:40:24.589Z,10.29
2022-11-17T22:42:29.366Z,10.31
2022-11-17T22:44:34.332Z,10.34
2022-11-17T22:46:43.172Z,10.34
2022-11-17T22:48:47.942Z,10.37
2022-11-17T22:50:52.748Z,10.41
2022-11-17T22:52:55.778Z,10.46
2022-11-17T22:55:00.694Z,10.51
2022-11-17T22:57:05.546Z,10.53
2022-11-17T22:59:10.500Z,10.54
2022-11-17T23:01:15.247Z,10.53
2022-11-17T23:03:22.832Z,10.55
2022-11-17T23:05:27.695Z,10.56
2022-11-17T23:07:32.586Z,10.59
2022-11-17T23:09:37.471Z,10.57
2022-11-17T23:11:45.422Z,10.55
2022-11-17T23:13:50.341Z,10.57
2022-11-17T23:15:55.367Z,10.61
2022-11-17T23:18:00.493Z,10.62
2022-11-17T23:20:09.037Z,10.65
2022-11-17T23:22:14.423Z,10.65
2022-11-17T23:24:19.026Z,10.64
2022-11-17T23:26:24.287Z,10.63
2022-11-17T23:28:28.835Z,10.61
2022-11-17T23:30:33.693Z,10.62
2022-11-17T23:32:38.488Z,10.65
2022-11-17T23:34:43.332Z,10.67
2022-11-17T23:36:50.704Z,10.69
2022-11-17T23:38:58.192Z,10.72
2022-11-17T23:41:03.433Z,10.75
2022-11-17T23:43:08.026Z,10.65
2022-11-17T23:45:14.651Z,10.59
2022-11-17T23:47:19.458Z,10.45
2022-11-17T23:49:24.349Z,10.41
2022-11-17T23:51:30.114Z,10.45
2022-11-17T23:53:37.945Z,10.50
2022-11-17T23:55:43.278Z,10.53
2022-11-17T23:57:48.061Z,10.55
2022-11-17T23:59:52.911Z,10.58
